首页
METAR-TAF:

METAR-TAF

机场 :

哥伦布, 喬治亞, 美国

纬度: 32-30-58N, 经度: 084-56-32W, 海拔: 121米

当前天气观测

该预报发布于15分钟前的11:23 UTC
风速4节,风向西北
温度 24°C
湿度 94%
气压 1014 hPa
能見度: 16.1公里
多云层高于600英尺
阴天层高于11000英尺

METAR: KCSG 091123Z AUTO 32004KT 10SM BKN006 OVC110 24/23 A2994 RMK AO2 T02440228

时间: 07:38 (11:38 UTC)

预报

该预报发布于3小时和39分钟前的07:59 UTC
预报有效从09日的 08点(UTC)到 10日的 06点(UTC)
风速8节,风向西转西北
能見度: 10公里
阴天层高于700英尺
从 09日的 1000点(UTC)
风速3节,风向多变
能見度: 10公里
散云层高于700英尺
多云层高于1000英尺
从 09日的 1300点(UTC)
风速4节,风向西北
能見度: 10公里
散云层高于900英尺
多云层高于1500英尺
从 09日的 1400点(UTC)
风速4节,风向西北
能見度: 10公里
散云层高于2500英尺
散云层高于4000英尺
从 09日的 1600点(UTC)
风速4节,风向西转西北
能見度: 10公里
多云层高于4000英尺

TAF: KCSG 090759Z 0908/1006 30008KT P6SM OVC007 FM091000 VRB03KT P6SM SCT007 BKN010 FM091300 31004KT P6SM SCT009 BKN015 FM091400 31004KT P6SM SCT025 SCT040 FM091600 30004KT P6SM BKN040

超过4000个机场的气象观测和天气预报(METAR&TAF报告)。

可查询的气象台以黄色和红色小点在地图上表示。

将鼠标移到小点上方,可查看气象台名称。

然后点击查看天气观测和预报。

如需切换地图:点击带黑十字的绿色按钮放大地图;点击带横线的绿色按钮缩小地图;或者点击绿色箭头查看邻近地区的地图。


METAR-TAF: